LFBA/AGF METAR and TAF weather

Enter ICAO airport designator
Station Type Date Time Source
LFBA METAR 2022/08/13 13:00 UTC NOAA

LFBA 131300Z AUTO VRB03KT CAVOK 33/18 Q1011 NOSIG


Station Type Date Time Source
LFBA Decoded METAR 2022/08/13 13:00 UTC NOAA

Agen, France (LFBA) 44-11N 000-36E 60M
Aug 13, 2022 - 09:00 AM EDT / 2022.08.13 1300 UTC
Wind: Variable at 3 MPH (3 KT):0
Visibility: greater than 7 mile(s):0
Temperature: 91 F (33 C)
Dew Point: 64 F (18 C)
Relative Humidity: 41%
Pressure (altimeter): 29.85 in. Hg (1011 hPa)
ob: LFBA 131300Z AUTO VRB03KT CAVOK 33/18 Q1011 NOSIG
cycle: 13

Station Type Date Time Source
LFBA TAF 2014/12/22 20:03 UTC NOAA

TAF
AMD TAF
AMD LFBA 222037Z 2220/2224 12007KT 0400 FG VV///
TEMPO 2220/2224 0100 PROB30
TEMPO 2222/2224 FZFG

Example: see airport list